Time;durP1;ratioP1;P1;durP2;ratioP2;P2;SDS_P1;SDS_P2;PMS_P1;PMS_P2;Temp;Humidity;BMP_temperature;BMP_pressure;BME280_temperature;BME280_humidity;BME280_pressure;Samples;Min_cycle;Max_cycle;Signal;HPM_P1;HPM_P2
2023/08/26 00:00:30;;;;;;;0.20;0.20;;;17.70;99.90;;;;;;5048949;28;20045;-84
2023/08/26 00:02:56;;;;;;;0.20;0.20;;;17.70;99.90;;;;;;5033364;28;20072;-85
2023/08/26 00:05:22;;;;;;;0.20;0.20;;;17.70;99.90;;;;;;5033041;28;20136;-85
2023/08/26 00:07:48;;;;;;;0.10;0.10;;;17.60;99.90;;;;;;5049932;28;20059;-84
2023/08/26 00:10:14;;;;;;;0.20;0.20;;;17.50;99.90;;;;;;5045956;28;20041;-85
2023/08/26 00:12:39;;;;;;;0.20;0.20;;;17.50;99.90;;;;;;5031741;28;20132;-85
2023/08/26 00:15:06;;;;;;;0.15;0.15;;;17.50;99.90;;;;;;5017613;28;20775;-84
2023/08/26 00:17:32;;;;;;;0.10;0.10;;;17.50;99.90;;;;;;5033176;28;20073;-84
2023/08/26 00:19:58;;;;;;;0.10;0.10;;;17.40;99.90;;;;;;5033048;28;20378;-83
2023/08/26 00:22:24;;;;;;;0.20;0.20;;;17.40;99.90;;;;;;5032788;28;20048;-85
2023/08/26 00:24:50;;;;;;;0.20;0.20;;;17.30;99.90;;;;;;5028877;28;20404;-84
2023/08/26 00:27:16;;;;;;;0.20;0.20;;;17.30;99.90;;;;;;5046675;28;20098;-84
2023/08/26 00:29:42;;;;;;;0.20;0.20;;;17.30;99.90;;;;;;5050851;28;20032;-84
2023/08/26 00:32:07;;;;;;;0.20;0.20;;;17.30;99.90;;;;;;5031574;28;20044;-84
2023/08/26 00:34:33;;;;;;;0.20;0.20;;;17.20;99.90;;;;;;5029908;28;20045;-85
2023/08/26 00:36:59;;;;;;;0.20;0.20;;;17.20;99.90;;;;;;5046229;28;20033;-83
2023/08/26 00:39:25;;;;;;;0.17;0.17;;;17.20;99.90;;;;;;5025828;28;20052;-84
2023/08/26 00:41:50;;;;;;;0.20;0.20;;;17.10;99.90;;;;;;5025917;28;20131;-84
2023/08/26 00:44:16;;;;;;;0.20;0.20;;;17.10;99.90;;;;;;5048228;28;20107;-84
2023/08/26 00:46:42;;;;;;;0.10;0.10;;;17.10;99.90;;;;;;5048462;28;20643;-84
2023/08/26 00:49:08;;;;;;;0.20;0.20;;;17.10;99.90;;;;;;5030499;28;20029;-83
2023/08/26 00:51:34;;;;;;;0.20;0.20;;;17.00;99.90;;;;;;5029983;28;20450;-85
2023/08/26 00:54:00;;;;;;;0.20;0.20;;;17.00;99.90;;;;;;5046562;28;20477;-84
2023/08/26 00:56:26;;;;;;;0.20;0.20;;;17.00;99.90;;;;;;5028827;28;20052;-85
2023/08/26 00:58:52;;;;;;;0.10;0.10;;;16.90;99.90;;;;;;5031379;28;20408;-85
2023/08/26 01:01:18;;;;;;;0.20;0.20;;;16.90;99.90;;;;;;5031067;28;20041;-84
2023/08/26 01:03:44;;;;;;;0.20;0.20;;;16.90;99.90;;;;;;4988834;28;1235257;-83
2023/08/26 01:06:10;;;;;;;0.17;0.17;;;16.90;99.90;;;;;;5028820;28;20036;-85
2023/08/26 01:08:36;;;;;;;0.10;0.10;;;16.80;99.90;;;;;;5028280;28;20071;-85
2023/08/26 01:11:19;;;;;;;0.10;0.10;;;16.80;99.90;;;;;;5029576;28;20179;-84
2023/08/26 01:13:57;;;;;;;0.20;0.20;;;16.70;99.90;;;;;;5032210;28;20053;-84
2023/08/26 01:16:23;;;;;;;0.20;0.20;;;16.80;99.90;;;;;;5030082;28;20064;-83
2023/08/26 01:18:50;;;;;;;0.15;0.15;;;16.70;99.90;;;;;;5032409;28;20094;-84
2023/08/26 01:21:19;;;;;;;0.20;0.20;;;16.60;99.90;;;;;;5044551;28;20033;-84
2023/08/26 01:23:46;;;;;;;0.20;0.20;;;16.60;99.90;;;;;;5031189;28;20119;-83
2023/08/26 01:26:12;;;;;;;0.10;0.10;;;16.60;99.90;;;;;;5030092;28;20048;-84
2023/08/26 01:28:38;;;;;;;0.10;0.10;;;16.50;99.90;;;;;;5029678;28;20477;-84
2023/08/26 01:31:11;;;;;;;0.10;0.10;;;16.50;99.90;;;;;;5048755;28;20049;-84
2023/08/26 01:33:48;;;;;;;0.10;0.10;;;16.50;99.90;;;;;;5049547;28;20041;-84
2023/08/26 01:36:18;;;;;;;0.20;0.20;;;16.40;99.90;;;;;;5042700;28;20404;-83
2023/08/26 01:38:45;;;;;;;0.20;0.20;;;16.40;99.90;;;;;;5048173;28;20048;-84
2023/08/26 01:41:14;;;;;;;0.15;0.15;;;16.40;99.90;;;;;;5028124;28;20034;-84
2023/08/26 01:43:41;;;;;;;0.13;0.13;;;16.40;99.90;;;;;;5032075;28;20561;-84
2023/08/26 01:46:07;;;;;;;0.20;0.20;;;16.40;99.90;;;;;;5046209;28;20075;-84
2023/08/26 01:48:32;;;;;;;0.10;0.10;;;16.30;99.90;;;;;;5028771;28;20045;-84
2023/08/26 01:50:58;;;;;;;0.20;0.20;;;16.30;99.90;;;;;;5028504;28;20048;-84
2023/08/26 01:53:23;;;;;;;0.20;0.20;;;16.30;99.90;;;;;;5035857;28;20049;-83
2023/08/26 01:55:49;;;;;;;0.10;0.10;;;16.30;99.90;;;;;;5038561;28;20060;-84
2023/08/26 01:58:15;;;;;;;0.10;0.10;;;16.20;99.90;;;;;;5050474;28;20499;-84
2023/08/26 02:00:41;;;;;;;0.20;0.20;;;16.30;99.90;;;;;;5050110;28;20045;-85
2023/08/26 02:03:06;;;;;;;0.20;0.20;;;16.20;99.90;;;;;;5031598;28;20052;-83
2023/08/26 02:05:32;;;;;;;0.20;0.20;;;16.20;99.90;;;;;;5031674;28;20123;-84
2023/08/26 02:07:57;;;;;;;0.20;0.20;;;16.20;99.90;;;;;;5041755;28;20055;-84
2023/08/26 02:10:23;;;;;;;0.20;0.20;;;16.10;99.90;;;;;;5039508;28;20040;-84
2023/08/26 02:12:49;;;;;;;0.20;0.20;;;16.10;99.90;;;;;;5032481;28;20045;-83
2023/08/26 02:15:14;;;;;;;0.10;0.10;;;16.00;99.90;;;;;;5032337;28;20044;-83
2023/08/26 02:17:40;;;;;;;0.20;0.20;;;16.00;99.90;;;;;;5015168;28;20045;-84
2023/08/26 02:20:07;;;;;;;0.20;0.20;;;16.00;99.90;;;;;;5026884;28;20033;-84
2023/08/26 02:22:33;;;;;;;0.20;0.20;;;16.00;99.90;;;;;;5030683;28;20236;-83
2023/08/26 02:24:59;;;;;;;0.20;0.20;;;16.00;99.90;;;;;;5030538;28;20064;-83
2023/08/26 02:27:24;;;;;;;0.10;0.10;;;16.00;99.90;;;;;;5049951;28;20041;-83
2023/08/26 02:29:50;;;;;;;0.20;0.20;;;15.90;99.90;;;;;;5027113;28;20037;-83
2023/08/26 02:32:16;;;;;;;0.20;0.20;;;15.90;99.90;;;;;;5030395;28;20082;-83
2023/08/26 02:34:41;;;;;;;0.20;0.20;;;15.80;99.90;;;;;;5032575;28;20505;-82
2023/08/26 02:37:07;;;;;;;0.10;0.10;;;15.80;99.90;;;;;;5021995;28;20471;-83
2023/08/26 02:39:33;;;;;;;0.20;0.20;;;15.80;99.90;;;;;;5031082;28;20067;-84
2023/08/26 02:41:59;;;;;;;0.20;0.20;;;15.70;99.90;;;;;;5049264;28;20033;-83
2023/08/26 02:44:24;;;;;;;0.15;0.15;;;15.70;99.90;;;;;;5030553;28;20094;-83
2023/08/26 02:46:50;;;;;;;0.20;0.20;;;15.70;99.90;;;;;;5027740;28;20056;-84
2023/08/26 02:49:16;;;;;;;0.20;0.20;;;15.70;99.90;;;;;;5029672;28;20481;-83
2023/08/26 02:51:41;;;;;;;0.10;0.10;;;15.60;99.90;;;;;;5028735;28;20083;-83
2023/08/26 02:54:07;;;;;;;0.20;0.20;;;15.50;99.90;;;;;;5045107;28;20072;-84
2023/08/26 02:56:33;;;;;;;0.20;0.20;;;15.50;99.90;;;;;;5026491;28;20045;-83
2023/08/26 02:58:58;;;;;;;0.20;0.20;;;15.50;99.90;;;;;;5048473;28;20041;-83
2023/08/26 03:01:24;;;;;;;0.20;0.20;;;15.50;99.90;;;;;;5040907;28;20039;-83
2023/08/26 03:03:50;;;;;;;0.20;0.20;;;15.50;99.90;;;;;;5028231;28;20053;-83
2023/08/26 03:06:15;;;;;;;0.10;0.10;;;15.50;99.90;;;;;;5037703;28;20080;-83
2023/08/26 03:08:41;;;;;;;0.15;0.15;;;15.40;99.90;;;;;;5036919;28;20060;-84
2023/08/26 03:11:10;;;;;;;0.10;0.10;;;15.50;99.90;;;;;;5028198;28;20053;-83
2023/08/26 03:13:36;;;;;;;0.10;0.10;;;15.40;99.90;;;;;;5049323;28;20068;-82
2023/08/26 03:16:09;;;;;;;0.20;0.20;;;15.40;99.90;;;;;;5029379;28;20385;-83
2023/08/26 03:18:36;;;;;;;0.20;0.20;;;15.40;99.90;;;;;;5049186;28;20131;-83
2023/08/26 03:21:10;;;;;;;0.20;0.20;;;15.40;99.90;;;;;;5030031;28;20064;-83
2023/08/26 03:23:36;;;;;;;0.10;0.10;;;15.30;99.90;;;;;;5031184;28;20651;-83
2023/08/26 03:26:03;;;;;;;0.20;0.20;;;15.30;99.90;;;;;;5047491;28;20174;-83
2023/08/26 03:28:29;;;;;;;0.10;0.10;;;15.30;99.90;;;;;;5031373;28;20088;-83
2023/08/26 03:31:02;;;;;;;0.20;0.20;;;15.30;99.90;;;;;;5046162;28;20076;-83
2023/08/26 03:33:28;;;;;;;0.10;0.10;;;15.30;99.90;;;;;;5013932;28;20045;-83
2023/08/26 03:35:53;;;;;;;0.20;0.20;;;15.30;99.90;;;;;;5030031;28;20057;-83
2023/08/26 03:38:19;;;;;;;0.20;0.20;;;15.20;99.90;;;;;;5030372;28;20102;-83
2023/08/26 03:40:45;;;;;;;0.10;0.10;;;15.20;99.90;;;;;;5029453;28;20131;-83
2023/08/26 03:43:10;;;;;;;0.20;0.20;;;15.20;99.90;;;;;;5031212;28;20045;-83
2023/08/26 03:45:38;;;;;;;0.10;0.10;;;15.10;99.90;;;;;;5025816;28;20036;-82
2023/08/26 03:48:04;;;;;;;0.10;0.10;;;15.20;99.90;;;;;;5045581;28;20057;-82
2023/08/26 03:50:30;;;;;;;0.10;0.10;;;15.10;99.90;;;;;;5030348;28;20081;-83
2023/08/26 03:52:56;;;;;;;0.20;0.20;;;15.10;99.90;;;;;;5029784;28;20107;-83
2023/08/26 03:55:21;;;;;;;0.10;0.10;;;15.10;99.90;;;;;;5047853;28;20565;-82
2023/08/26 03:57:47;;;;;;;0.10;0.10;;;15.10;99.90;;;;;;5046572;28;20052;-83
2023/08/26 04:00:14;;;;;;;0.20;0.20;;;15.00;99.90;;;;;;5028290;28;20044;-83
2023/08/26 04:02:40;;;;;;;0.13;0.13;;;15.00;99.90;;;;;;5026451;28;20152;-83
2023/08/26 04:05:06;;;;;;;0.10;0.10;;;15.00;99.90;;;;;;5025091;28;20183;-84
2023/08/26 04:07:32;;;;;;;0.10;0.10;;;15.00;99.90;;;;;;5023715;28;20051;-83
2023/08/26 04:09:58;;;;;;;0.20;0.20;;;15.00;99.90;;;;;;5032810;28;20047;-84
2023/08/26 04:12:23;;;;;;;0.10;0.10;;;15.10;99.90;;;;;;5031847;28;20052;-83
2023/08/26 04:14:49;;;;;;;0.10;0.10;;;15.00;99.90;;;;;;5032897;28;20073;-83
2023/08/26 04:17:15;;;;;;;0.10;0.10;;;15.00;99.90;;;;;;5032926;28;20132;-83
2023/08/26 04:19:40;;;;;;;0.10;0.10;;;15.00;99.90;;;;;;5051764;28;20090;-83
2023/08/26 04:22:07;;;;;;;0.20;0.20;;;15.00;99.90;;;;;;5050111;28;20048;-83
2023/08/26 04:24:33;;;;;;;0.13;0.13;;;15.00;99.90;;;;;;5032784;28;20080;-83
2023/08/26 04:26:59;;;;;;;0.20;0.20;;;15.00;99.90;;;;;;5048127;28;20033;-83
2023/08/26 04:29:24;;;;;;;0.20;0.20;;;15.00;99.90;;;;;;5052559;28;20107;-83
2023/08/26 04:31:50;;;;;;;0.10;0.10;;;15.10;99.90;;;;;;5052226;28;20477;-83
2023/08/26 04:34:16;;;;;;;0.20;0.20;;;15.10;99.90;;;;;;5029754;28;20140;-82
2023/08/26 04:36:41;;;;;;;0.10;0.10;;;15.00;99.90;;;;;;5033236;28;20037;-83
2023/08/26 04:39:10;;;;;;;0.10;0.10;;;15.00;99.90;;;;;;5029969;28;20042;-82
2023/08/26 04:41:38;;;;;;;0.20;0.20;;;15.10;99.90;;;;;;5024629;28;20048;-83
2023/08/26 04:44:05;;;;;;;0.17;0.17;;;15.00;99.90;;;;;;5051572;28;20049;-83
2023/08/26 04:46:31;;;;;;;0.10;0.10;;;15.10;99.90;;;;;;5048153;28;20041;-83
2023/08/26 04:48:57;;;;;;;0.10;0.10;;;15.10;99.90;;;;;;5052187;28;20044;-83
2023/08/26 04:51:22;;;;;;;0.20;0.20;;;15.10;99.90;;;;;;5033489;28;20045;-83
2023/08/26 04:53:48;;;;;;;0.10;0.10;;;15.10;99.90;;;;;;5051029;28;20049;-82
2023/08/26 04:56:15;;;;;;;0.20;0.20;;;15.10;99.90;;;;;;5032500;28;20087;-83
2023/08/26 04:58:40;;;;;;;0.10;0.10;;;15.20;99.90;;;;;;5033286;28;20561;-83
2023/08/26 05:01:06;;;;;;;0.20;0.20;;;15.10;99.90;;;;;;5032618;28;20049;-83
2023/08/26 05:03:32;;;;;;;0.10;0.10;;;15.20;99.90;;;;;;5050271;28;20440;-83
2023/08/26 05:05:57;;;;;;;0.20;0.20;;;15.20;99.90;;;;;;5026460;28;20502;-84
2023/08/26 05:08:23;;;;;;;0.10;0.10;;;15.20;99.90;;;;;;5030364;28;20044;-83
2023/08/26 05:10:49;;;;;;;0.20;0.20;;;15.30;99.90;;;;;;5023666;28;20446;-83
2023/08/26 05:13:14;;;;;;;0.10;0.10;;;15.30;99.90;;;;;;5031706;28;20043;-83
2023/08/26 05:15:40;;;;;;;0.10;0.10;;;15.30;99.90;;;;;;5033850;28;20098;-83
2023/08/26 05:18:06;;;;;;;0.10;0.10;;;15.30;99.90;;;;;;5030024;28;20699;-83
2023/08/26 05:20:32;;;;;;;0.20;0.20;;;15.30;99.90;;;;;;5028986;28;20512;-82
2023/08/26 05:22:58;;;;;;;0.20;0.20;;;15.30;99.90;;;;;;5041899;28;20049;-81
2023/08/26 05:25:24;;;;;;;0.10;0.10;;;15.30;99.90;;;;;;5031023;28;20037;-83
2023/08/26 05:27:49;;;;;;;0.10;0.10;;;15.30;99.90;;;;;;5050924;28;20044;-83
2023/08/26 05:30:15;;;;;;;0.15;0.15;;;15.30;99.90;;;;;;5047600;28;20044;-82
2023/08/26 05:32:41;;;;;;;0.10;0.10;;;15.40;99.90;;;;;;5045776;28;20045;-83
2023/08/26 05:35:07;;;;;;;0.15;0.15;;;15.40;99.90;;;;;;5033634;28;20463;-80
2023/08/26 05:37:32;;;;;;;0.17;0.17;;;15.40;99.90;;;;;;5030195;28;20437;-79
2023/08/26 05:39:58;;;;;;;0.20;0.20;;;15.40;99.90;;;;;;5027871;28;20056;-82
2023/08/26 05:42:23;;;;;;;0.10;0.10;;;15.40;99.90;;;;;;5028225;28;20038;-81
2023/08/26 05:44:49;;;;;;;0.20;0.20;;;15.50;99.90;;;;;;5048213;28;20409;-82
2023/08/26 05:47:15;;;;;;;0.20;0.20;;;15.50;99.90;;;;;;5039007;28;20075;-82
2023/08/26 05:49:40;;;;;;;0.17;0.17;;;15.50;99.90;;;;;;5031240;28;20496;-83
2023/08/26 05:52:06;;;;;;;0.10;0.10;;;15.60;99.90;;;;;;5030836;28;20059;-82
2023/08/26 05:54:32;;;;;;;0.10;0.10;;;15.50;99.90;;;;;;5044227;28;20045;-81
2023/08/26 05:56:57;;;;;;;0.20;0.20;;;15.50;99.90;;;;;;5029856;28;20045;-82
2023/08/26 05:59:23;;;;;;;0.20;0.20;;;15.50;99.90;;;;;;5048559;28;20045;-83
2023/08/26 06:01:49;;;;;;;0.20;0.20;;;15.50;99.90;;;;;;5048534;28;20037;-82
2023/08/26 06:04:14;;;;;;;0.10;0.10;;;15.60;99.90;;;;;;5048414;28;20060;-82
2023/08/26 06:06:40;;;;;;;0.20;0.20;;;15.60;99.90;;;;;;5047836;28;20044;-82
2023/08/26 06:09:06;;;;;;;0.10;0.10;;;15.60;99.90;;;;;;5048512;28;20033;-81
2023/08/26 06:11:31;;;;;;;0.20;0.20;;;15.60;99.90;;;;;;5030020;28;20049;-81
2023/08/26 06:13:58;;;;;;;0.17;0.17;;;15.70;99.90;;;;;;5029207;28;20045;-82
2023/08/26 06:16:24;;;;;;;0.10;0.10;;;15.60;99.90;;;;;;5043257;28;20119;-82
2023/08/26 06:18:50;;;;;;;0.20;0.20;;;15.60;99.90;;;;;;5031405;28;20105;-82
2023/08/26 06:21:15;;;;;;;0.10;0.10;;;15.60;99.90;;;;;;5049255;28;20484;-81
2023/08/26 06:23:41;;;;;;;0.10;0.10;;;15.60;99.90;;;;;;5030250;28;20087;-82
2023/08/26 06:26:07;;;;;;;0.10;0.10;;;15.60;99.90;;;;;;5028034;28;20072;-82
2023/08/26 06:28:33;;;;;;;0.20;0.20;;;15.60;99.90;;;;;;5045431;28;20127;-83
2023/08/26 06:30:59;;;;;;;0.28;0.28;;;15.60;99.90;;;;;;5046729;28;20087;-81
2023/08/26 06:33:26;;;;;;;0.20;0.20;;;15.50;99.90;;;;;;5028639;28;20037;-82
2023/08/26 06:35:52;;;;;;;0.20;0.20;;;15.50;99.90;;;;;;5042887;28;20059;-82
2023/08/26 06:38:17;;;;;;;0.10;0.10;;;15.50;99.90;;;;;;5021577;28;20389;-84
2023/08/26 06:40:43;;;;;;;0.10;0.10;;;15.40;99.90;;;;;;5017099;28;20495;-83
2023/08/26 06:43:09;;;;;;;0.10;0.10;;;15.40;99.90;;;;;;5031347;28;20060;-83
2023/08/26 06:45:34;;;;;;;0.10;0.10;;;15.40;99.90;;;;;;5049956;28;20361;-83
2023/08/26 06:48:00;;;;;;;0.10;0.10;;;15.40;99.90;;;;;;5030023;28;20469;-82
2023/08/26 06:50:26;;;;;;;0.13;0.13;;;15.40;99.90;;;;;;5031498;28;20045;-83
2023/08/26 06:52:52;;;;;;;0.20;0.20;;;15.40;99.90;;;;;;5049558;28;20428;-82
2023/08/26 06:55:18;;;;;;;0.20;0.20;;;15.40;99.90;;;;;;5048062;28;20049;-82
2023/08/26 06:57:44;;;;;;;0.10;0.10;;;15.30;99.90;;;;;;5023691;28;20072;-83
2023/08/26 07:00:12;;;;;;;0.10;0.10;;;15.30;99.90;;;;;;5030914;28;20495;-82
2023/08/26 07:02:38;;;;;;;0.10;0.10;;;15.40;99.90;;;;;;5012399;28;20486;-82
2023/08/26 07:05:04;;;;;;;0.10;0.10;;;15.40;99.90;;;;;;5025993;28;20095;-82
2023/08/26 07:07:30;;;;;;;0.20;0.20;;;15.40;99.90;;;;;;5030326;28;20088;-82
2023/08/26 07:09:56;;;;;;;0.20;0.20;;;15.30;99.90;;;;;;5031219;28;20073;-81
2023/08/26 07:12:21;;;;;;;0.10;0.10;;;15.30;99.90;;;;;;5030455;28;20041;-82
2023/08/26 07:14:47;;;;;;;0.10;0.10;;;15.30;99.90;;;;;;5031283;28;20060;-82
2023/08/26 07:17:17;;;;;;;0.10;0.10;;;15.30;99.90;;;;;;5031427;28;20361;-82
2023/08/26 07:19:42;;;;;;;0.20;0.20;;;15.30;99.90;;;;;;5050193;28;20049;-82
2023/08/26 07:22:08;;;;;;;0.10;0.10;;;15.30;99.90;;;;;;5029565;28;20504;-82
2023/08/26 07:24:34;;;;;;;0.10;0.10;;;15.30;99.90;;;;;;5028749;28;20469;-81
2023/08/26 07:26:59;;;;;;;0.20;0.20;;;15.40;99.90;;;;;;5028906;28;20126;-82
2023/08/26 07:29:25;;;;;;;0.10;0.10;;;15.40;99.90;;;;;;5026097;28;20041;-81
2023/08/26 07:31:51;;;;;;;0.20;0.20;;;15.50;99.90;;;;;;5029841;28;20052;-81
2023/08/26 07:34:16;;;;;;;0.20;0.20;;;15.50;99.90;;;;;;5026474;28;20048;-81
2023/08/26 07:36:42;;;;;;;0.10;0.10;;;15.50;99.90;;;;;;5023847;28;20504;-82
2023/08/26 07:39:08;;;;;;;0.10;0.10;;;15.50;99.90;;;;;;5042375;28;20033;-80
2023/08/26 07:41:35;;;;;;;0.20;0.20;;;15.60;99.90;;;;;;5028455;28;20043;-82
2023/08/26 07:44:00;;;;;;;0.15;0.15;;;15.50;99.90;;;;;;5047622;28;20045;-82
2023/08/26 07:46:26;;;;;;;0.15;0.15;;;15.60;99.90;;;;;;5027519;28;20044;-82
2023/08/26 07:48:52;;;;;;;0.20;0.20;;;15.60;99.90;;;;;;5051785;28;20041;-83
2023/08/26 07:51:18;;;;;;;0.20;0.20;;;15.70;99.90;;;;;;5048059;28;20142;-83
2023/08/26 07:53:44;;;;;;;0.10;0.10;;;15.70;99.90;;;;;;5047939;28;20041;-82
2023/08/26 07:56:10;;;;;;;0.10;0.10;;;15.80;99.90;;;;;;5049962;28;20116;-82
2023/08/26 07:58:36;;;;;;;0.30;0.25;;;15.80;99.90;;;;;;5034534;28;20536;-82
2023/08/26 08:01:02;;;;;;;0.20;0.20;;;15.90;99.90;;;;;;5050274;28;20444;-81
2023/08/26 08:03:28;;;;;;;0.20;0.20;;;16.00;99.90;;;;;;5032575;28;20071;-82
2023/08/26 08:05:53;;;;;;;0.20;0.20;;;16.10;99.90;;;;;;5025199;28;20044;-82
2023/08/26 08:08:19;;;;;;;0.20;0.20;;;16.20;99.90;;;;;;5025759;28;20038;-83
2023/08/26 08:10:45;;;;;;;0.55;0.25;;;16.20;99.90;;;;;;5027800;28;20045;-83
2023/08/26 08:13:10;;;;;;;0.20;0.20;;;16.30;99.90;;;;;;5052583;28;20248;-84
2023/08/26 08:15:37;;;;;;;0.20;0.20;;;16.40;99.90;;;;;;5051087;28;20037;-83
2023/08/26 08:18:02;;;;;;;0.20;0.20;;;16.50;99.90;;;;;;5032664;28;20041;-83
2023/08/26 08:20:31;;;;;;;0.20;0.20;;;16.60;99.90;;;;;;5033697;28;20049;-83
2023/08/26 08:22:57;;;;;;;0.20;0.20;;;16.60;99.90;;;;;;5016684;28;20053;-82
2023/08/26 08:25:24;;;;;;;0.10;0.10;;;16.70;99.90;;;;;;5031861;28;20048;-81
2023/08/26 08:27:50;;;;;;;0.20;0.20;;;16.80;99.90;;;;;;5027453;28;20040;-82
2023/08/26 08:30:15;;;;;;;0.35;0.35;;;16.90;99.90;;;;;;5032263;28;20102;-83
2023/08/26 08:32:41;;;;;;;0.80;0.55;;;16.90;99.90;;;;;;5033370;28;20124;-82
2023/08/26 08:35:07;;;;;;;0.20;0.20;;;16.90;99.90;;;;;;5031450;28;20439;-81
2023/08/26 08:37:33;;;;;;;0.20;0.20;;;16.90;99.90;;;;;;5027063;28;20512;-81
2023/08/26 08:39:59;;;;;;;0.40;0.40;;;17.00;99.90;;;;;;5030053;28;20052;-77
2023/08/26 08:42:25;;;;;;;0.17;0.17;;;17.00;99.90;;;;;;5048272;28;20112;-79
2023/08/26 08:44:51;;;;;;;0.20;0.20;;;17.00;99.90;;;;;;5014215;28;20064;-79
2023/08/26 08:47:17;;;;;;;0.20;0.20;;;17.10;99.90;;;;;;5031433;28;20481;-78
2023/08/26 08:49:43;;;;;;;0.20;0.20;;;17.10;99.90;;;;;;5034547;28;20124;-79
2023/08/26 08:52:10;;;;;;;0.20;0.20;;;17.20;99.90;;;;;;5033551;28;20412;-78
2023/08/26 08:54:37;;;;;;;0.10;0.10;;;17.30;99.90;;;;;;5033390;28;20493;-78
2023/08/26 08:57:04;;;;;;;0.13;0.13;;;17.30;99.90;;;;;;5031806;28;20052;-78
2023/08/26 08:59:34;;;;;;;0.20;0.20;;;17.40;99.90;;;;;;5034071;28;20049;-78
2023/08/26 09:02:00;;;;;;;0.10;0.10;;;17.40;99.90;;;;;;5031038;28;20397;-78
2023/08/26 09:04:28;;;;;;;0.10;0.10;;;17.40;99.90;;;;;;5045517;28;20445;-79
2023/08/26 09:06:54;;;;;;;0.20;0.20;;;17.50;99.90;;;;;;5027702;28;20057;-78
2023/08/26 09:09:21;;;;;;;0.20;0.20;;;17.50;99.90;;;;;;5049814;28;20408;-78
2023/08/26 09:11:48;;;;;;;0.22;0.22;;;17.60;99.90;;;;;;5048473;28;20562;-78
2023/08/26 09:14:14;;;;;;;0.20;0.20;;;17.60;99.90;;;;;;5029969;28;20041;-78
2023/08/26 09:16:42;;;;;;;0.20;0.20;;;17.60;99.90;;;;;;5049568;28;20455;-78
2023/08/26 09:19:12;;;;;;;0.20;0.20;;;17.70;99.90;;;;;;5026442;28;20045;-78
2023/08/26 09:21:42;;;;;;;0.20;0.20;;;17.70;99.90;;;;;;5028833;28;20044;-76
2023/08/26 09:24:13;;;;;;;0.20;0.20;;;17.60;99.90;;;;;;5030350;28;20041;-77
2023/08/26 09:26:39;;;;;;;;;;;17.80;99.90;;;;;;5046448;28;20369;-78
2023/08/26 09:29:13;;;;;;;0.10;0.10;;;17.90;99.90;;;;;;5013782;28;19921;-77
2023/08/26 09:31:50;;;;;;;0.10;0.10;;;17.90;99.90;;;;;;5030653;28;20038;-78
2023/08/26 09:34:28;;;;;;;0.10;0.10;;;18.00;99.90;;;;;;5043737;28;20204;-78
2023/08/26 09:36:54;;;;;;;0.20;0.20;;;18.20;99.90;;;;;;5032336;28;20125;-77
2023/08/26 09:39:23;;;;;;;0.20;0.20;;;18.30;99.90;;;;;;5031696;28;20048;-77
2023/08/26 09:41:49;;;;;;;0.20;0.20;;;18.40;99.90;;;;;;5030801;28;20061;-77
2023/08/26 09:44:16;;;;;;;0.10;0.10;;;18.60;99.90;;;;;;5027760;28;20037;-78
2023/08/26 09:46:43;;;;;;;0.20;0.20;;;18.70;99.90;;;;;;5029442;28;20041;-78
2023/08/26 09:49:16;;;;;;;0.20;0.20;;;18.80;99.90;;;;;;5013225;28;20064;-80
2023/08/26 09:51:47;;;;;;;0.20;0.20;;;18.90;99.90;;;;;;5018083;28;20067;-79
2023/08/26 09:54:17;;;;;;;0.20;0.20;;;18.90;99.90;;;;;;5029478;28;20076;-79
2023/08/26 09:56:44;;;;;;;0.40;0.40;;;18.90;99.90;;;;;;5038467;28;20499;-78
2023/08/26 09:59:10;;;;;;;0.20;0.20;;;19.00;99.90;;;;;;5047742;28;20052;-79
2023/08/26 10:01:38;;;;;;;0.20;0.20;;;19.00;99.90;;;;;;5026945;28;20033;-80
2023/08/26 10:04:10;;;;;;;0.20;0.20;;;19.10;99.90;;;;;;5024885;28;20095;-79
2023/08/26 10:06:46;;;;;;;0.30;0.30;;;19.20;99.90;;;;;;5024338;28;20136;-78
2023/08/26 10:09:26;;;;;;;0.20;0.20;;;19.30;99.90;;;;;;5028813;28;20045;-79
2023/08/26 10:11:54;;;;;;;0.20;0.20;;;19.40;99.90;;;;;;5018358;28;20045;-78
2023/08/26 10:14:24;;;;;;;0.20;0.20;;;19.40;99.90;;;;;;5026873;28;20103;-78
2023/08/26 10:16:52;;;;;;;0.20;0.20;;;19.50;99.90;;;;;;5027513;28;20044;-79
2023/08/26 10:19:18;;;;;;;0.30;0.30;;;19.50;99.90;;;;;;5029473;28;20041;-79
2023/08/26 10:21:45;;;;;;;0.20;0.20;;;19.40;99.90;;;;;;5026713;28;20120;-78
2023/08/26 10:24:10;;;;;;;0.20;0.20;;;19.40;99.90;;;;;;5023980;28;20049;-79
2023/08/26 10:26:36;;;;;;;0.30;0.30;;;19.30;99.90;;;;;;5020598;28;20030;-79
2023/08/26 10:29:02;;;;;;;0.43;0.43;;;19.10;99.90;;;;;;5020334;28;20136;-80
2023/08/26 10:31:38;;;;;;;0.20;0.20;;;19.00;99.90;;;;;;5025007;28;20160;-82
2023/08/26 10:34:07;;;;;;;0.20;0.20;;;18.80;99.90;;;;;;5023710;28;20061;-81
2023/08/26 10:36:37;;;;;;;0.10;0.10;;;18.60;99.90;;;;;;5026941;28;20060;-83
2023/08/26 10:39:04;;;;;;;0.20;0.20;;;18.40;99.90;;;;;;5025372;28;20041;-82
2023/08/26 10:41:30;;;;;;;0.20;0.20;;;18.10;99.90;;;;;;5025892;28;20042;-82
2023/08/26 10:43:58;;;;;;;0.20;0.20;;;17.80;99.90;;;;;;5028177;28;20037;-83
2023/08/26 10:46:36;;;;;;;0.13;0.13;;;17.60;99.90;;;;;;5025940;28;20056;-82
2023/08/26 10:49:03;;;;;;;0.20;0.20;;;17.10;99.90;;;;;;5018242;28;20053;-83
2023/08/26 10:51:35;;;;;;;0.20;0.20;;;16.70;99.90;;;;;;5013286;28;20049;-82
2023/08/26 10:54:04;;;;;;;0.20;0.20;;;16.50;99.90;;;;;;5010161;28;20042;-82
2023/08/26 10:56:34;;;;;;;0.20;0.20;;;16.50;99.90;;;;;;5017208;28;20049;-82
2023/08/26 10:59:04;;;;;;;0.20;0.20;;;16.40;99.90;;;;;;5028785;28;20056;-82
2023/08/26 11:01:35;;;;;;;0.20;0.20;;;16.10;99.90;;;;;;5026561;28;20053;-82
2023/08/26 11:04:01;;;;;;;0.10;0.10;;;16.10;99.90;;;;;;5026413;28;20080;-81
2023/08/26 11:06:28;;;;;;;0.10;0.10;;;16.20;99.90;;;;;;5026854;28;20041;-82
2023/08/26 11:08:55;;;;;;;0.25;0.25;;;16.40;99.90;;;;;;5029009;28;20500;-81
2023/08/26 11:11:21;;;;;;;0.20;0.20;;;16.50;99.90;;;;;;5025230;28;20095;-82
2023/08/26 11:13:47;;;;;;;0.20;0.20;;;16.50;99.90;;;;;;5024641;28;20128;-81
2023/08/26 11:16:14;;;;;;;0.15;0.15;;;16.60;99.90;;;;;;5026958;28;20064;-82
2023/08/26 11:18:40;;;;;;;0.20;0.20;;;16.50;99.90;;;;;;5027728;28;20041;-82
2023/08/26 11:21:07;;;;;;;0.20;0.20;;;16.30;99.90;;;;;;5028911;28;20124;-81
2023/08/26 11:23:33;;;;;;;0.20;0.20;;;16.60;99.90;;;;;;5029936;28;20053;-82
2023/08/26 11:25:59;;;;;;;0.20;0.20;;;16.60;99.90;;;;;;5025666;28;20061;-82
2023/08/26 11:28:26;;;;;;;0.20;0.20;;;16.80;99.90;;;;;;5029636;28;20037;-81
2023/08/26 11:30:53;;;;;;;0.20;0.20;;;16.60;99.90;;;;;;5030817;28;20470;-81
2023/08/26 11:33:20;;;;;;;0.10;0.10;;;16.80;99.90;;;;;;5028230;28;20130;-82
2023/08/26 11:35:47;;;;;;;0.10;0.10;;;17.00;99.90;;;;;;5020310;28;20096;-82
2023/08/26 11:38:14;;;;;;;0.13;0.13;;;17.20;99.90;;;;;;5010752;28;20100;-83
2023/08/26 11:40:40;;;;;;;0.10;0.10;;;17.70;99.90;;;;;;5025188;28;20094;-81
2023/08/26 11:43:11;;;;;;;0.10;0.10;;;17.80;99.90;;;;;;5029989;28;20037;-81
2023/08/26 11:45:42;;;;;;;0.10;0.10;;;17.70;99.90;;;;;;5028768;28;20049;-80
2023/08/26 11:48:12;;;;;;;0.10;0.10;;;18.10;99.90;;;;;;5028792;28;20119;-81
2023/08/26 11:50:39;;;;;;;0.20;0.20;;;18.20;99.90;;;;;;5028149;28;20049;-81
2023/08/26 11:53:05;;;;;;;0.20;0.20;;;18.10;99.90;;;;;;5028804;28;20420;-81
2023/08/26 11:55:32;;;;;;;0.20;0.20;;;18.40;99.90;;;;;;5022955;28;20046;-80
2023/08/26 11:58:00;;;;;;;0.20;0.20;;;18.50;99.90;;;;;;5032632;28;20045;-81
2023/08/26 12:00:26;;;;;;;0.20;0.20;;;18.60;99.90;;;;;;5026657;28;20061;-80
2023/08/26 12:02:54;;;;;;;0.20;0.20;;;18.40;99.90;;;;;;5028228;28;20048;-79
2023/08/26 12:05:20;;;;;;;0.20;0.20;;;18.60;99.90;;;;;;5032275;28;20045;-81
2023/08/26 12:07:51;;;;;;;0.20;0.20;;;18.50;99.90;;;;;;5032469;28;20041;-81
2023/08/26 12:10:18;;;;;;;0.20;0.20;;;18.40;99.90;;;;;;5034227;28;20112;-80
2023/08/26 12:12:45;;;;;;;0.13;0.13;;;18.30;99.90;;;;;;5051687;28;20041;-81
2023/08/26 12:15:14;;;;;;;0.20;0.20;;;18.30;99.90;;;;;;5030736;28;20077;-80
2023/08/26 12:17:48;;;;;;;0.20;0.20;;;18.10;99.90;;;;;;5046678;28;20647;-81
2023/08/26 12:20:24;;;;;;;0.20;0.20;;;18.20;99.90;;;;;;5033266;28;20149;-80
2023/08/26 12:22:50;;;;;;;0.20;0.20;;;18.30;99.90;;;;;;5051336;28;20041;-80
2023/08/26 12:25:27;;;;;;;0.20;0.20;;;18.20;99.90;;;;;;5033076;28;20056;-80
2023/08/26 12:28:26;;;;;;;0.20;0.20;;;18.30;99.90;;;;;;5029488;28;20052;-80
2023/08/26 12:30:52;;;;;;;0.20;0.20;;;18.60;99.90;;;;;;5047284;28;20053;-81
2023/08/26 12:33:18;;;;;;;0.20;0.20;;;18.90;99.90;;;;;;5028501;28;20029;-79
2023/08/26 12:35:45;;;;;;;0.20;0.20;;;19.20;99.90;;;;;;5039928;28;20045;-80
2023/08/26 12:38:12;;;;;;;0.20;0.20;;;19.50;99.90;;;;;;5025922;28;20074;-79
2023/08/26 12:40:40;;;;;;;0.20;0.20;;;19.80;99.90;;;;;;5029700;28;20048;-81
2023/08/26 12:43:06;;;;;;;0.20;0.20;;;20.10;99.90;;;;;;5046113;28;20047;-79
2023/08/26 12:45:33;;;;;;;0.10;0.10;;;20.10;99.90;;;;;;5030742;28;20059;-79